createdAt,value
2023-02-25T00:00:36.497Z,24.05
2023-02-25T00:01:16.926Z,24.07
2023-02-25T00:02:03.873Z,24.11
2023-02-25T00:02:41.947Z,24.12
2023-02-25T00:03:20.124Z,24.14
2023-02-25T00:03:59.726Z,24.15
2023-02-25T00:04:39.498Z,24.16
2023-02-25T00:05:18.261Z,24.15
2023-02-25T00:05:57.908Z,24.13
2023-02-25T00:06:36.753Z,24.16
2023-02-25T00:07:16.293Z,24.16
2023-02-25T00:07:55.852Z,24.17
2023-02-25T00:08:35.540Z,24.16
2023-02-25T00:09:14.655Z,24.16
2023-02-25T00:09:53.580Z,24.17
2023-02-25T00:10:32.741Z,24.18
2023-02-25T00:11:12.410Z,24.18
2023-02-25T00:11:52.403Z,24.19
2023-02-25T00:12:32.102Z,24.16
2023-02-25T00:13:18.143Z,24.15
2023-02-25T00:13:57.154Z,24.16
2023-02-25T00:14:34.797Z,24.14
2023-02-25T00:15:13.702Z,24.15
2023-02-25T00:15:53.533Z,24.17
2023-02-25T00:16:32.130Z,24.18
2023-02-25T00:17:13.420Z,24.20
2023-02-25T00:17:53.386Z,24.18
2023-02-25T00:18:33.378Z,24.18
2023-02-25T00:19:12.473Z,24.17
2023-02-25T00:19:51.838Z,24.14
2023-02-25T00:20:30.982Z,24.16
2023-02-25T00:21:10.995Z,24.16
2023-02-25T00:21:51.693Z,24.13
2023-02-25T00:22:31.488Z,24.15
2023-02-25T00:23:11.254Z,24.18
2023-02-25T00:23:52.244Z,24.21
2023-02-25T00:24:30.799Z,24.17
2023-02-25T00:25:10.388Z,24.14
2023-02-25T00:25:49.427Z,24.16
2023-02-25T00:26:29.353Z,24.13
2023-02-25T00:27:08.459Z,24.13
2023-02-25T00:27:48.278Z,24.12
2023-02-25T00:28:27.493Z,24.14
2023-02-25T00:29:07.164Z,24.12
2023-02-25T00:29:46.272Z,24.14
2023-02-25T00:30:25.770Z,24.14
2023-02-25T00:31:05.420Z,24.16
2023-02-25T00:31:46.396Z,24.14
2023-02-25T00:32:27.621Z,24.16
2023-02-25T00:33:07.656Z,24.15
2023-02-25T00:33:48.674Z,24.14
2023-02-25T00:34:29.073Z,24.15
2023-02-25T00:35:08.235Z,24.13
2023-02-25T00:35:47.458Z,24.13
2023-02-25T00:36:28.142Z,24.14
2023-02-25T00:37:08.148Z,24.13
2023-02-25T00:37:48.892Z,24.14
2023-02-25T00:38:29.576Z,24.13
2023-02-25T00:39:09.859Z,24.13
2023-02-25T00:39:49.763Z,24.14
2023-02-25T00:40:29.953Z,24.11
2023-02-25T00:41:08.862Z,24.11
2023-02-25T00:41:50.311Z,24.12
2023-02-25T00:42:29.917Z,24.13
2023-02-25T00:43:09.728Z,24.11
2023-02-25T00:43:48.516Z,24.12
2023-02-25T00:44:28.633Z,24.12
2023-02-25T00:45:07.105Z,24.12
2023-02-25T00:45:45.827Z,24.16
2023-02-25T00:46:26.810Z,24.16
2023-02-25T00:47:05.910Z,24.16
2023-02-25T00:47:45.223Z,24.15
2023-02-25T00:48:25.051Z,24.14
2023-02-25T00:49:04.052Z,24.12
2023-02-25T00:49:42.710Z,24.13
2023-02-25T00:50:21.182Z,24.12
2023-02-25T00:50:59.801Z,24.13
2023-02-25T00:51:38.765Z,24.11
2023-02-25T00:52:17.536Z,24.11
2023-02-25T00:52:56.023Z,24.14
2023-02-25T00:53:35.848Z,24.12
2023-02-25T00:54:14.495Z,24.11
2023-02-25T00:54:54.309Z,24.11
2023-02-25T00:55:33.640Z,24.13
2023-02-25T00:56:12.582Z,24.11
2023-02-25T00:56:52.481Z,24.11
2023-02-25T00:57:32.347Z,24.14
2023-02-25T00:58:12.310Z,24.12
2023-02-25T00:58:53.129Z,24.15
2023-02-25T00:59:32.614Z,24.13
2023-02-25T01:00:12.239Z,24.14
2023-02-25T01:00:52.301Z,24.11
2023-02-25T01:01:31.499Z,24.12
2023-02-25T01:02:11.203Z,24.10
2023-02-25T01:02:50.645Z,24.09
2023-02-25T01:03:30.745Z,24.08
2023-02-25T01:04:10.522Z,24.11
2023-02-25T01:04:50.303Z,24.13
2023-02-25T01:05:28.975Z,24.13
2023-02-25T01:06:08.349Z,24.11
2023-02-25T01:06:49.195Z,24.12
2023-02-25T01:07:28.463Z,24.12
2023-02-25T01:08:09.407Z,24.12
2023-02-25T01:08:48.840Z,24.11
2023-02-25T01:09:30.286Z,24.08
2023-02-25T01:10:11.163Z,24.11
2023-02-25T01:10:50.688Z,24.13
2023-02-25T01:11:29.873Z,24.14
2023-02-25T01:12:09.738Z,24.13
2023-02-25T01:12:49.344Z,24.13
2023-02-25T01:13:29.412Z,24.14
2023-02-25T01:14:10.425Z,24.14
2023-02-25T01:14:50.781Z,24.14
2023-02-25T01:15:30.380Z,24.12
2023-02-25T01:16:08.890Z,24.09
2023-02-25T01:16:48.914Z,24.09
2023-02-25T01:17:28.949Z,24.09
2023-02-25T01:18:08.560Z,24.11
2023-02-25T01:18:48.430Z,24.12
2023-02-25T01:19:29.630Z,24.13
2023-02-25T01:20:10.650Z,24.12
2023-02-25T01:20:49.833Z,24.11
2023-02-25T01:21:28.875Z,24.12
2023-02-25T01:22:08.769Z,24.13
2023-02-25T01:22:48.937Z,24.13
2023-02-25T01:23:28.975Z,24.14
2023-02-25T01:24:10.094Z,24.12
2023-02-25T01:24:50.878Z,24.11
2023-02-25T01:25:30.803Z,24.08
2023-02-25T01:26:10.016Z,24.08
2023-02-25T01:26:49.145Z,24.07
2023-02-25T01:27:29.188Z,24.08
2023-02-25T01:28:10.503Z,24.13
2023-02-25T01:28:51.402Z,24.12
2023-02-25T01:29:31.425Z,24.13
2023-02-25T01:30:10.425Z,24.12
2023-02-25T01:30:49.679Z,24.13
2023-02-25T01:31:28.150Z,24.11
2023-02-25T01:32:07.797Z,24.11
2023-02-25T01:32:46.855Z,24.10
2023-02-25T01:33:27.665Z,24.11
2023-02-25T01:34:07.146Z,24.09
2023-02-25T01:34:47.907Z,24.12
2023-02-25T01:35:27.615Z,24.12
2023-02-25T01:36:06.656Z,24.11
2023-02-25T01:36:45.388Z,24.12
2023-02-25T01:37:28.176Z,24.15
2023-02-25T01:38:07.675Z,24.12
2023-02-25T01:38:46.849Z,24.12
2023-02-25T01:39:26.752Z,24.10
2023-02-25T01:40:04.199Z,24.09
2023-02-25T01:40:44.210Z,24.09
2023-02-25T01:41:24.292Z,24.12
2023-02-25T01:42:03.050Z,24.11
2023-02-25T01:42:42.372Z,24.08
2023-02-25T01:43:20.556Z,24.10
2023-02-25T01:43:59.823Z,24.12
2023-02-25T01:44:38.831Z,24.13
2023-02-25T01:45:17.875Z,24.14
2023-02-25T01:45:56.728Z,24.12
2023-02-25T01:46:34.937Z,24.12
2023-02-25T01:47:13.640Z,24.11
2023-02-25T01:47:52.945Z,24.09
2023-02-25T01:48:32.397Z,24.09
2023-02-25T01:49:11.427Z,24.09
2023-02-25T01:49:50.558Z,24.09
2023-02-25T01:50:31.411Z,24.11
2023-02-25T01:51:11.104Z,24.12
2023-02-25T01:51:49.307Z,24.10
2023-02-25T01:52:28.516Z,24.11
2023-02-25T01:53:09.066Z,24.09
2023-02-25T01:53:48.821Z,24.09
2023-02-25T01:54:28.763Z,24.10
2023-02-25T01:55:09.707Z,24.11
2023-02-25T01:55:50.420Z,24.13
2023-02-25T01:56:30.268Z,24.10
2023-02-25T01:57:09.424Z,24.14
2023-02-25T01:57:47.948Z,24.12
2023-02-25T01:58:27.618Z,24.11
2023-02-25T01:59:07.791Z,24.12
2023-02-25T01:59:48.373Z,24.10
2023-02-25T02:00:28.581Z,24.09
2023-02-25T02:01:08.198Z,24.10
2023-02-25T02:01:48.754Z,24.11
2023-02-25T02:02:26.518Z,24.12
2023-02-25T02:03:04.971Z,24.11
2023-02-25T02:03:45.488Z,24.11
2023-02-25T02:04:27.132Z,24.13
2023-02-25T02:05:05.443Z,24.11
2023-02-25T02:05:45.087Z,24.10
2023-02-25T02:06:24.838Z,24.13
2023-02-25T02:07:04.496Z,24.10
2023-02-25T02:07:43.679Z,24.10
2023-02-25T02:08:22.445Z,24.14
2023-02-25T02:09:02.255Z,24.14
2023-02-25T02:09:42.264Z,24.09
2023-02-25T02:10:21.327Z,24.11
2023-02-25T02:11:02.096Z,24.12
2023-02-25T02:11:41.546Z,24.12
2023-02-25T02:12:22.302Z,24.13
2023-02-25T02:13:00.981Z,24.12
2023-02-25T02:13:39.961Z,24.13
2023-02-25T02:14:19.115Z,24.14
2023-02-25T02:14:59.258Z,24.15
2023-02-25T02:15:47.057Z,24.13
2023-02-25T02:16:26.884Z,24.12
2023-02-25T02:17:06.112Z,24.14
2023-02-25T02:17:45.830Z,24.14
2023-02-25T02:18:25.286Z,24.11
2023-02-25T02:19:04.340Z,24.09
2023-02-25T02:19:43.540Z,24.12
2023-02-25T02:20:22.752Z,24.15
2023-02-25T02:21:03.981Z,24.13
2023-02-25T02:21:42.315Z,24.12
2023-02-25T02:22:20.462Z,24.11
2023-02-25T02:22:59.878Z,24.12
2023-02-25T02:23:40.176Z,24.15
2023-02-25T02:24:19.382Z,24.13
2023-02-25T02:24:59.246Z,24.13
2023-02-25T02:25:38.289Z,24.13
2023-02-25T02:26:17.149Z,24.14
2023-02-25T02:26:56.268Z,24.10
2023-02-25T02:27:35.467Z,24.10
2023-02-25T02:28:13.727Z,24.13
2023-02-25T02:28:52.927Z,24.12
2023-02-25T02:29:33.775Z,24.11
2023-02-25T02:30:13.120Z,24.10
2023-02-25T02:30:53.079Z,24.12
2023-02-25T02:31:32.494Z,24.13
2023-02-25T02:32:12.624Z,24.12
2023-02-25T02:32:52.065Z,24.12
2023-02-25T02:33:30.814Z,24.12
2023-02-25T02:34:10.094Z,24.11
2023-02-25T02:34:49.986Z,24.10
2023-02-25T02:35:29.106Z,24.09
2023-02-25T02:36:07.434Z,24.12
2023-02-25T02:36:46.352Z,24.13
2023-02-25T02:37:25.502Z,24.13
2023-02-25T02:38:04.591Z,24.11
2023-02-25T02:38:43.012Z,24.11
2023-02-25T02:39:22.180Z,24.12
2023-02-25T02:40:01.729Z,24.13
2023-02-25T02:40:41.284Z,24.11
2023-02-25T02:41:20.593Z,24.11
2023-02-25T02:41:59.180Z,24.11
2023-02-25T02:42:37.841Z,24.11
2023-02-25T02:43:17.184Z,24.10
2023-02-25T02:43:56.899Z,24.13
2023-02-25T02:44:36.009Z,24.13
2023-02-25T02:45:15.089Z,24.13
2023-02-25T02:45:55.188Z,24.09
2023-02-25T02:46:35.047Z,24.11
2023-02-25T02:47:13.951Z,24.11
2023-02-25T02:47:53.234Z,24.10
2023-02-25T02:48:32.789Z,24.14
2023-02-25T02:49:11.053Z,24.12
2023-02-25T02:49:50.304Z,24.13
2023-02-25T02:50:29.813Z,24.09
2023-02-25T02:51:09.853Z,24.09
2023-02-25T02:51:49.643Z,24.11
2023-02-25T02:52:28.798Z,24.08
2023-02-25T02:53:08.564Z,24.07
2023-02-25T02:53:48.494Z,24.08
2023-02-25T02:54:28.956Z,24.07
2023-02-25T02:55:08.816Z,24.08
2023-02-25T02:55:49.556Z,24.13
2023-02-25T02:56:29.691Z,24.11
2023-02-25T02:57:09.839Z,24.10
2023-02-25T02:57:49.022Z,24.08
2023-02-25T02:58:28.942Z,24.09
2023-02-25T02:59:08.769Z,24.06
2023-02-25T02:59:49.247Z,24.06
2023-02-25T03:00:28.757Z,24.08
2023-02-25T03:01:08.909Z,24.09
2023-02-25T03:01:46.548Z,24.08
2023-02-25T03:02:25.242Z,24.08
2023-02-25T03:03:05.170Z,24.07
2023-02-25T03:03:44.745Z,24.08
2023-02-25T03:04:23.767Z,24.08
2023-02-25T03:05:03.780Z,24.09
2023-02-25T03:05:43.838Z,24.07
2023-02-25T03:06:25.087Z,24.07
2023-02-25T03:07:03.723Z,24.09
2023-02-25T03:07:42.929Z,24.11
2023-02-25T03:08:22.658Z,24.08
2023-02-25T03:09:02.376Z,24.08
2023-02-25T03:09:42.048Z,24.07
2023-02-25T03:10:23.071Z,24.10
2023-02-25T03:11:03.137Z,24.09
2023-02-25T03:11:42.990Z,24.07
2023-02-25T03:12:21.923Z,24.06
2023-02-25T03:13:01.143Z,24.08
2023-02-25T03:13:41.076Z,24.07
2023-02-25T03:14:22.028Z,24.08
2023-02-25T03:15:03.538Z,24.08
2023-02-25T03:15:42.302Z,24.09
2023-02-25T03:16:23.426Z,24.11
2023-02-25T03:17:02.161Z,24.10
2023-02-25T03:17:41.581Z,24.08
2023-02-25T03:18:20.705Z,24.09
2023-02-25T03:19:01.766Z,24.09
2023-02-25T03:19:41.909Z,24.09
2023-02-25T03:20:21.697Z,24.12
2023-02-25T03:21:01.297Z,24.09
2023-02-25T03:21:41.344Z,24.06
2023-02-25T03:22:20.905Z,24.09
2023-02-25T03:23:00.942Z,24.08
2023-02-25T03:23:40.098Z,24.09
2023-02-25T03:24:21.034Z,24.09
2023-02-25T03:25:00.925Z,24.09
2023-02-25T03:25:40.644Z,24.12
2023-02-25T03:26:20.754Z,24.13
2023-02-25T03:27:00.458Z,24.12
2023-02-25T03:27:40.255Z,24.12
2023-02-25T03:28:19.572Z,24.11
2023-02-25T03:28:58.701Z,24.12
2023-02-25T03:29:38.278Z,24.11
2023-02-25T03:30:17.822Z,24.11
2023-02-25T03:30:57.396Z,24.09
2023-02-25T03:31:36.985Z,24.10
2023-02-25T03:32:17.777Z,24.11
2023-02-25T03:32:57.519Z,24.11
2023-02-25T03:33:36.742Z,24.09
2023-02-25T03:34:15.752Z,24.09
2023-02-25T03:34:56.539Z,24.11
2023-02-25T03:35:37.328Z,24.12
2023-02-25T03:36:16.968Z,24.12
2023-02-25T03:36:56.847Z,24.11
2023-02-25T03:37:36.916Z,24.08
2023-02-25T03:38:17.568Z,24.09
2023-02-25T03:38:56.542Z,24.07
2023-02-25T03:39:35.991Z,24.07
2023-02-25T03:40:16.088Z,24.11
2023-02-25T03:40:56.803Z,24.11
2023-02-25T03:41:36.608Z,24.12
2023-02-25T03:42:16.539Z,24.11
2023-02-25T03:42:56.193Z,24.09
2023-02-25T03:43:36.139Z,24.09
2023-02-25T03:44:15.172Z,24.12
2023-02-25T03:44:54.426Z,24.14
2023-02-25T03:45:33.882Z,24.11
2023-02-25T03:46:14.670Z,24.12
2023-02-25T03:46:53.798Z,24.13
2023-02-25T03:47:33.631Z,24.09
2023-02-25T03:48:12.364Z,24.11
2023-02-25T03:48:53.031Z,24.11
2023-02-25T03:49:30.943Z,24.09
2023-02-25T03:50:10.076Z,24.09
2023-02-25T03:50:49.306Z,24.10
2023-02-25T03:51:28.828Z,24.10
2023-02-25T03:52:08.418Z,24.12
2023-02-25T03:52:48.142Z,24.11
2023-02-25T03:53:27.045Z,24.10
2023-02-25T03:54:07.886Z,24.10
2023-02-25T03:54:46.052Z,24.11
2023-02-25T03:55:25.199Z,24.11
2023-02-25T03:56:06.066Z,24.09
2023-02-25T03:56:45.774Z,24.09
2023-02-25T03:57:25.419Z,24.07
2023-02-25T03:58:05.632Z,24.11
2023-02-25T03:58:46.490Z,24.09
2023-02-25T03:59:26.236Z,24.07
2023-02-25T04:00:08.384Z,24.07
2023-02-25T04:00:48.032Z,24.07
2023-02-25T04:01:28.063Z,24.07
2023-02-25T04:02:08.604Z,24.07
2023-02-25T04:02:48.419Z,24.08
2023-02-25T04:03:29.062Z,24.09
2023-02-25T04:04:08.594Z,24.08
2023-02-25T04:04:47.899Z,24.07
2023-02-25T04:05:27.161Z,24.09
2023-02-25T04:06:05.934Z,24.09
2023-02-25T04:06:45.550Z,24.09
2023-02-25T04:07:24.399Z,24.08
2023-02-25T04:08:02.864Z,24.09
2023-02-25T04:08:41.855Z,24.10
2023-02-25T04:09:21.868Z,24.08
2023-02-25T04:10:01.153Z,24.08
2023-02-25T04:10:41.404Z,24.07
2023-02-25T04:11:22.390Z,24.06
2023-02-25T04:12:02.935Z,24.04
2023-02-25T04:12:42.051Z,24.08
2023-02-25T04:13:21.166Z,24.08
2023-02-25T04:14:00.173Z,24.07
2023-02-25T04:14:39.132Z,24.09
2023-02-25T04:15:18.327Z,24.09
2023-02-25T04:15:58.151Z,24.07
2023-02-25T04:16:39.370Z,24.07
2023-02-25T04:17:19.797Z,24.06
2023-02-25T04:17:58.987Z,24.07
2023-02-25T04:18:38.053Z,24.06
2023-02-25T04:19:17.512Z,24.09
2023-02-25T04:19:57.594Z,24.07
2023-02-25T04:20:38.529Z,24.07
2023-02-25T04:21:18.505Z,24.09
2023-02-25T04:21:59.237Z,24.08
2023-02-25T04:22:39.068Z,24.07
2023-02-25T04:23:18.047Z,24.08
2023-02-25T04:23:57.182Z,24.08
2023-02-25T04:24:37.130Z,24.07
2023-02-25T04:25:16.996Z,24.08
2023-02-25T04:25:57.260Z,24.09
2023-02-25T04:26:37.158Z,24.07
2023-02-25T04:27:17.104Z,24.06
2023-02-25T04:27:56.642Z,24.06
2023-02-25T04:28:36.861Z,24.08
2023-02-25T04:29:15.958Z,24.07
2023-02-25T04:29:55.797Z,24.07
2023-02-25T04:30:35.634Z,24.08
2023-02-25T04:31:15.879Z,24.08
2023-02-25T04:31:56.429Z,24.08
2023-02-25T04:32:36.911Z,24.07
2023-02-25T04:33:17.122Z,24.07
2023-02-25T04:33:57.270Z,24.08
2023-02-25T04:34:36.386Z,24.11
2023-02-25T04:35:16.045Z,24.09
2023-02-25T04:35:55.032Z,24.10
2023-02-25T04:36:34.448Z,24.09
2023-02-25T04:37:13.935Z,24.08
2023-02-25T04:37:52.933Z,24.07
2023-02-25T04:38:32.240Z,24.07
2023-02-25T04:39:11.274Z,24.08
2023-02-25T04:39:50.138Z,24.07
2023-02-25T04:40:30.485Z,24.06
2023-02-25T04:41:11.572Z,24.06
2023-02-25T04:41:52.751Z,24.05
2023-02-25T04:42:33.839Z,24.06
2023-02-25T04:43:14.454Z,24.04
2023-02-25T04:43:54.278Z,24.07
2023-02-25T04:44:33.349Z,24.05
2023-02-25T04:45:13.097Z,24.06
2023-02-25T04:45:53.804Z,24.06
2023-02-25T04:46:33.179Z,24.07
2023-02-25T04:47:13.464Z,24.08
2023-02-25T04:47:53.268Z,24.08
2023-02-25T04:48:33.321Z,24.05
2023-02-25T04:49:13.972Z,24.05
2023-02-25T04:49:53.314Z,24.07
2023-02-25T04:50:32.672Z,24.07
2023-02-25T04:51:12.434Z,24.06
2023-02-25T04:51:52.256Z,24.07
2023-02-25T04:52:32.184Z,24.07
2023-02-25T04:53:11.426Z,24.06
2023-02-25T04:53:50.595Z,24.06
2023-02-25T04:54:31.492Z,24.07
2023-02-25T04:55:12.124Z,24.05
2023-02-25T04:55:52.121Z,24.04
2023-02-25T04:56:32.607Z,24.05
2023-02-25T04:57:12.115Z,24.07
2023-02-25T04:57:51.572Z,24.08
2023-02-25T04:58:30.817Z,24.06
2023-02-25T04:59:10.126Z,24.05
2023-02-25T04:59:50.694Z,24.03
2023-02-25T05:00:30.539Z,24.06
2023-02-25T05:01:10.543Z,24.06
2023-02-25T05:01:50.576Z,24.04
2023-02-25T05:02:31.952Z,24.06
2023-02-25T05:03:12.709Z,24.04
2023-02-25T05:03:51.533Z,24.05
2023-02-25T05:04:30.758Z,24.06
2023-02-25T05:05:10.582Z,24.05
2023-02-25T05:05:50.316Z,24.05
2023-02-25T05:06:29.761Z,24.04
2023-02-25T05:07:09.390Z,24.04
2023-02-25T05:07:49.431Z,24.06
2023-02-25T05:08:28.059Z,24.05
2023-02-25T05:09:09.326Z,24.05
2023-02-25T05:09:48.077Z,24.08
2023-02-25T05:10:28.495Z,24.09
2023-02-25T05:11:08.499Z,24.07
2023-02-25T05:11:49.356Z,24.05
2023-02-25T05:12:29.904Z,24.05
2023-02-25T05:13:08.640Z,24.03
2023-02-25T05:13:47.873Z,24.03
2023-02-25T05:14:27.218Z,24.03
2023-02-25T05:15:09.451Z,24.02
2023-02-25T05:15:49.456Z,24.04
2023-02-25T05:16:29.995Z,24.05
2023-02-25T05:17:09.929Z,24.05
2023-02-25T05:17:50.301Z,24.05
2023-02-25T05:18:29.681Z,24.07
2023-02-25T05:19:09.180Z,24.07
2023-02-25T05:19:48.787Z,24.08
2023-02-25T05:20:29.362Z,24.07
2023-02-25T05:21:08.606Z,24.07
2023-02-25T05:21:46.787Z,24.08
2023-02-25T05:22:25.095Z,24.07
2023-02-25T05:23:03.346Z,24.06
2023-02-25T05:23:41.702Z,24.06
2023-02-25T05:24:19.683Z,24.06
2023-02-25T05:24:58.978Z,24.07
2023-02-25T05:25:37.741Z,24.07
2023-02-25T05:26:16.085Z,24.08
2023-02-25T05:26:56.472Z,24.07
2023-02-25T05:27:36.373Z,24.06
2023-02-25T05:28:15.879Z,24.06
2023-02-25T05:28:54.498Z,24.05
2023-02-25T05:29:34.826Z,24.03
2023-02-25T05:30:15.149Z,24.04
2023-02-25T05:30:56.343Z,24.05
2023-02-25T05:31:37.462Z,24.05
2023-02-25T05:32:18.262Z,24.04
2023-02-25T05:32:58.568Z,24.03
2023-02-25T05:33:38.062Z,24.03
2023-02-25T05:34:17.283Z,24.05
2023-02-25T05:34:58.005Z,24.04
2023-02-25T05:35:37.843Z,24.06
2023-02-25T05:36:17.583Z,24.05
2023-02-25T05:36:56.568Z,24.04
2023-02-25T05:37:34.646Z,24.05
2023-02-25T05:38:14.457Z,24.06
2023-02-25T05:38:53.338Z,24.06
2023-02-25T05:39:32.181Z,24.03
2023-02-25T05:40:11.695Z,24.04
2023-02-25T05:40:50.804Z,24.04
2023-02-25T05:41:30.777Z,24.03
2023-02-25T05:42:10.244Z,24.03
2023-02-25T05:42:49.727Z,24.03
2023-02-25T05:43:29.035Z,24.02
2023-02-25T05:44:08.858Z,24.04
2023-02-25T05:44:47.812Z,24.02
2023-02-25T05:45:28.442Z,24.06
2023-02-25T05:46:07.814Z,24.06
2023-02-25T05:46:48.112Z,24.05
2023-02-25T05:47:27.565Z,24.05
2023-02-25T05:48:07.493Z,24.05
2023-02-25T05:48:49.719Z,24.06
2023-02-25T05:49:31.562Z,24.08
2023-02-25T05:50:10.830Z,24.05
2023-02-25T05:50:50.117Z,24.07
2023-02-25T05:51:29.557Z,24.04
2023-02-25T05:52:08.949Z,24.05
2023-02-25T05:52:50.193Z,24.05
2023-02-25T05:53:29.850Z,24.03
2023-02-25T05:54:08.748Z,24.06
2023-02-25T05:54:47.881Z,24.07
2023-02-25T05:55:26.763Z,24.06
2023-02-25T05:56:09.568Z,24.07
2023-02-25T05:56:48.941Z,24.04
2023-02-25T05:57:28.427Z,24.04
2023-02-25T05:58:07.706Z,24.03
2023-02-25T05:58:47.327Z,24.02
2023-02-25T05:59:27.092Z,24.04
2023-02-25T06:00:05.805Z,24.04
2023-02-25T06:00:44.833Z,24.07
2023-02-25T06:01:24.551Z,24.06
2023-02-25T06:02:05.396Z,24.05
2023-02-25T06:02:45.190Z,24.05
2023-02-25T06:03:24.814Z,24.07
2023-02-25T06:04:08.428Z,24.06
2023-02-25T06:04:47.595Z,24.04
2023-02-25T06:05:26.454Z,24.03
2023-02-25T06:06:06.058Z,24.06
2023-02-25T06:06:45.362Z,24.07
2023-02-25T06:07:25.437Z,24.07
2023-02-25T06:08:05.460Z,24.05
2023-02-25T06:08:46.211Z,24.04
2023-02-25T06:09:25.132Z,24.05
2023-02-25T06:10:05.576Z,24.07
2023-02-25T06:10:44.564Z,24.06
2023-02-25T06:11:23.170Z,24.06
2023-02-25T06:12:03.099Z,24.07
2023-02-25T06:12:43.781Z,24.05
2023-02-25T06:13:22.734Z,24.04
2023-02-25T06:14:02.681Z,24.05
2023-02-25T06:14:43.270Z,24.05
2023-02-25T06:15:23.047Z,24.04
2023-02-25T06:16:02.602Z,24.06
2023-02-25T06:16:42.214Z,24.05
2023-02-25T06:17:21.157Z,24.04
2023-02-25T06:18:00.179Z,24.03
2023-02-25T06:18:38.475Z,24.06
2023-02-25T06:19:16.838Z,24.09
2023-02-25T06:19:56.331Z,24.08
2023-02-25T06:20:35.577Z,24.07
2023-02-25T06:21:14.398Z,24.06
2023-02-25T06:21:53.139Z,24.05
2023-02-25T06:22:32.831Z,24.04
2023-02-25T06:23:11.768Z,24.04
2023-02-25T06:23:50.919Z,24.03
2023-02-25T06:24:30.644Z,24.05
2023-02-25T06:25:09.537Z,24.06
2023-02-25T06:25:48.744Z,24.07
2023-02-25T06:26:27.542Z,24.04
2023-02-25T06:27:06.493Z,24.05
2023-02-25T06:27:46.515Z,24.05
2023-02-25T06:28:27.076Z,24.06
2023-02-25T06:29:05.940Z,24.08
2023-02-25T06:29:44.756Z,24.05
2023-02-25T06:30:25.298Z,24.05
2023-02-25T06:31:05.052Z,24.03
2023-02-25T06:31:45.520Z,24.01
2023-02-25T06:32:25.604Z,24.04
2023-02-25T06:33:06.222Z,24.06
2023-02-25T06:33:46.500Z,24.04
2023-02-25T06:34:26.796Z,24.05
2023-02-25T06:35:06.146Z,24.05
2023-02-25T06:35:46.966Z,24.04
2023-02-25T06:36:27.060Z,24.04
2023-02-25T06:37:05.863Z,24.06
2023-02-25T06:37:45.768Z,24.07
2023-02-25T06:38:25.004Z,24.05
2023-02-25T06:39:06.316Z,24.05
2023-02-25T06:39:45.188Z,24.05
2023-02-25T06:40:23.809Z,24.07
2023-02-25T06:41:03.893Z,24.06
2023-02-25T06:41:43.200Z,24.06
2023-02-25T06:42:23.108Z,24.05
2023-02-25T06:43:03.932Z,24.05
2023-02-25T06:43:43.703Z,24.05
2023-02-25T06:44:23.261Z,24.05
2023-02-25T06:45:07.205Z,24.03
2023-02-25T06:45:45.724Z,24.05
2023-02-25T06:46:25.836Z,24.04
2023-02-25T06:47:04.534Z,24.05
2023-02-25T06:47:44.812Z,24.06
2023-02-25T06:48:24.652Z,24.07
2023-02-25T06:49:04.174Z,24.08
2023-02-25T06:49:44.126Z,24.05
2023-02-25T06:50:23.830Z,24.06
2023-02-25T06:51:02.316Z,24.05
2023-02-25T06:51:43.049Z,24.05
2023-02-25T06:52:21.824Z,24.04
2023-02-25T06:53:01.764Z,24.05
2023-02-25T06:53:40.227Z,24.07
2023-02-25T06:54:20.077Z,24.06
2023-02-25T06:54:59.208Z,24.04
2023-02-25T06:55:39.202Z,24.04
2023-02-25T06:56:18.066Z,24.04
2023-02-25T06:56:58.761Z,24.04
2023-02-25T06:57:37.871Z,24.03
2023-02-25T06:58:17.414Z,24.03
2023-02-25T06:58:56.429Z,24.03
2023-02-25T06:59:37.505Z,24.05
2023-02-25T07:00:16.992Z,24.05
2023-02-25T07:00:56.002Z,24.06
2023-02-25T07:01:34.913Z,24.07
2023-02-25T07:02:15.175Z,24.07
2023-02-25T07:02:53.920Z,24.06
2023-02-25T07:03:33.436Z,24.07
2023-02-25T07:04:12.636Z,24.08
2023-02-25T07:04:52.122Z,24.06
2023-02-25T07:05:31.333Z,24.08
2023-02-25T07:06:10.976Z,24.07
2023-02-25T07:06:49.940Z,24.06
2023-02-25T07:07:30.295Z,24.07
2023-02-25T07:08:09.971Z,24.06
2023-02-25T07:08:49.446Z,24.05
2023-02-25T07:09:28.830Z,24.05
2023-02-25T07:10:09.016Z,24.04
2023-02-25T07:10:48.144Z,24.03
2023-02-25T07:11:27.561Z,24.05
2023-02-25T07:12:06.543Z,24.03
2023-02-25T07:12:47.490Z,24.04
2023-02-25T07:13:27.234Z,24.05
2023-02-25T07:14:07.183Z,24.06
2023-02-25T07:14:46.964Z,24.04
2023-02-25T07:15:26.279Z,24.05
2023-02-25T07:16:05.234Z,24.05
2023-02-25T07:16:45.134Z,24.05
2023-02-25T07:17:24.936Z,24.06
2023-02-25T07:18:04.414Z,24.05
2023-02-25T07:18:43.524Z,24.07
2023-02-25T07:19:25.012Z,24.04
2023-02-25T07:20:04.431Z,24.06
2023-02-25T07:20:42.884Z,24.05
2023-02-25T07:21:22.072Z,24.07
2023-02-25T07:22:01.899Z,24.07
2023-02-25T07:22:43.018Z,24.06
2023-02-25T07:23:24.300Z,24.05
2023-02-25T07:24:04.833Z,24.05
2023-02-25T07:24:44.749Z,24.04
2023-02-25T07:25:24.628Z,24.05
2023-02-25T07:26:03.818Z,24.06
2023-02-25T07:26:44.063Z,24.02
2023-02-25T07:27:24.208Z,24.02
2023-02-25T07:28:06.493Z,24.03
2023-02-25T07:28:45.543Z,24.04
2023-02-25T07:29:26.488Z,24.03
2023-02-25T07:30:06.276Z,24.04
2023-02-25T07:30:44.589Z,24.06
2023-02-25T07:31:23.901Z,24.03
2023-02-25T07:32:03.368Z,24.03
2023-02-25T07:32:43.988Z,24.03
2023-02-25T07:33:23.030Z,24.04
2023-02-25T07:34:04.196Z,24.04
2023-02-25T07:34:44.216Z,24.04
2023-02-25T07:35:24.919Z,24.03
2023-02-25T07:36:03.513Z,24.04
2023-02-25T07:36:42.437Z,24.06
2023-02-25T07:37:21.176Z,24.05
2023-02-25T07:38:02.232Z,24.04
2023-02-25T07:38:41.613Z,24.03
2023-02-25T07:39:21.496Z,24.05
2023-02-25T07:40:00.832Z,24.08
2023-02-25T07:40:42.080Z,24.06
2023-02-25T07:41:21.039Z,24.04
2023-02-25T07:42:00.161Z,24.04
2023-02-25T07:42:39.243Z,24.04
2023-02-25T07:43:19.101Z,24.04
2023-02-25T07:43:57.988Z,24.04
2023-02-25T07:44:37.266Z,24.02
2023-02-25T07:45:17.162Z,24.01
2023-02-25T07:45:55.223Z,24.01
2023-02-25T07:46:33.878Z,24.04
2023-02-25T07:47:15.057Z,24.04
2023-02-25T07:47:54.914Z,24.06
2023-02-25T07:48:34.349Z,24.05
2023-02-25T07:49:14.564Z,24.04
2023-02-25T07:49:54.443Z,24.03
2023-02-25T07:50:32.902Z,24.01
2023-02-25T07:51:11.695Z,24.01
2023-02-25T07:51:51.825Z,24.05
2023-02-25T07:52:30.076Z,24.04
2023-02-25T07:53:09.489Z,24.04
2023-02-25T07:53:49.214Z,24.02
2023-02-25T07:54:28.103Z,24.04
2023-02-25T07:55:06.972Z,24.04
2023-02-25T07:55:45.780Z,24.04
2023-02-25T07:56:24.693Z,24.04
2023-02-25T07:57:04.049Z,24.04
2023-02-25T07:57:44.951Z,24.06
2023-02-25T07:58:24.864Z,24.05
2023-02-25T07:59:05.469Z,24.08
2023-02-25T07:59:45.230Z,24.06
2023-02-25T08:00:24.734Z,24.04
2023-02-25T08:01:03.919Z,24.06
2023-02-25T08:01:43.135Z,24.06
2023-02-25T08:02:23.060Z,24.05
2023-02-25T08:03:03.804Z,24.04
2023-02-25T08:03:42.708Z,24.04
2023-02-25T08:04:22.482Z,24.02
2023-02-25T08:05:01.591Z,24.03
2023-02-25T08:05:42.364Z,24.03
2023-02-25T08:06:20.500Z,24.02
2023-02-25T08:06:58.973Z,24.04
2023-02-25T08:07:38.327Z,24.04
2023-02-25T08:08:18.451Z,24.04
2023-02-25T08:08:58.457Z,24.06
2023-02-25T08:09:38.357Z,24.06
2023-02-25T08:10:18.546Z,24.05
2023-02-25T08:10:59.315Z,24.05
2023-02-25T08:11:38.878Z,24.03
2023-02-25T08:12:17.229Z,24.03
2023-02-25T08:12:56.704Z,24.03
2023-02-25T08:13:37.975Z,24.02
2023-02-25T08:14:16.030Z,24.02
2023-02-25T08:14:51.570Z,23.99
2023-02-25T08:15:32.983Z,24.01
2023-02-25T08:16:12.596Z,24.01
2023-02-25T08:16:50.816Z,24.01
2023-02-25T08:17:30.667Z,24.02
2023-02-25T08:18:10.582Z,24.00
2023-02-25T08:18:51.366Z,24.01
2023-02-25T08:19:31.260Z,24.00
2023-02-25T08:20:10.961Z,23.99
2023-02-25T08:20:50.985Z,24.00
2023-02-25T08:21:32.009Z,24.01
2023-02-25T08:22:10.878Z,24.01
2023-02-25T08:22:50.053Z,24.01
2023-02-25T08:23:29.134Z,24.02
2023-02-25T08:24:08.308Z,24.02
2023-02-25T08:24:47.278Z,24.02
2023-02-25T08:25:26.596Z,24.02
2023-02-25T08:26:06.271Z,24.03
2023-02-25T08:26:44.816Z,24.00
2023-02-25T08:27:23.445Z,24.01
2023-02-25T08:28:02.490Z,24.02
2023-02-25T08:28:41.561Z,24.01
2023-02-25T08:29:21.064Z,24.02
2023-02-25T08:30:00.606Z,24.02
2023-02-25T08:30:41.431Z,24.02
2023-02-25T08:31:20.108Z,24.01